Time;durP1;ratioP1;P1;durP2;ratioP2;P2;SDS_P1;SDS_P2;PMS_P1;PMS_P2;Temp;Humidity;BMP_temperature;BMP_pressure;BME280_temperature;BME280_humidity;BME280_pressure;Samples;Min_cycle;Max_cycle;Signal;HPM_P1;HPM_P2
2021/09/18 00:01:18;;;;;;;3.50;0.60;;;;;;;12.60;100.00;100588.19;2614555;36;20031;-48
2021/09/18 00:03:45;;;;;;;0.60;0.50;;;;;;;12.61;100.00;100583.94;2615725;31;20042;-46
2021/09/18 00:06:13;;;;;;;1.02;0.52;;;;;;;12.59;100.00;100583.06;2614665;36;20125;-46
2021/09/18 00:08:40;;;;;;;0.40;0.40;;;;;;;12.59;100.00;100583.91;2614781;36;20450;-47
2021/09/18 00:11:07;;;;;;;0.85;0.75;;;;;;;12.59;100.00;100591.63;2615431;31;20035;-47
2021/09/18 00:13:34;;;;;;;1.15;0.47;;;;;;;12.59;100.00;100589.06;2616031;31;20486;-48
2021/09/18 00:16:01;;;;;;;0.55;0.52;;;;;;;12.59;100.00;100590.75;2614626;31;20037;-47
2021/09/18 00:18:28;;;;;;;1.33;0.50;;;;;;;12.57;100.00;100584.72;2615575;31;20026;-49
2021/09/18 00:20:56;;;;;;;0.60;0.35;;;;;;;12.55;100.00;100586.41;2614419;31;20030;-47
2021/09/18 00:23:24;;;;;;;0.63;0.40;;;;;;;12.54;100.00;100589.81;2614645;31;20045;-44
2021/09/18 00:25:51;;;;;;;1.02;0.50;;;;;;;12.53;100.00;100586.41;2614806;36;20507;-46
2021/09/18 00:28:18;;;;;;;1.40;0.60;;;;;;;12.51;100.00;100588.06;2614855;36;20445;-47
2021/09/18 00:30:45;;;;;;;1.10;0.47;;;;;;;12.50;100.00;100583.75;2614994;36;20458;-46
2021/09/18 00:33:13;;;;;;;2.78;0.50;;;;;;;12.48;100.00;100582.88;2614873;31;20030;-45
2021/09/18 00:35:40;;;;;;;1.73;0.50;;;;;;;12.47;100.00;100589.69;2614682;36;20558;-43
2021/09/18 00:38:07;;;;;;;0.55;0.55;;;;;;;12.47;100.00;100587.13;2614216;31;20038;-44
2021/09/18 00:40:34;;;;;;;2.40;0.55;;;;;;;12.49;100.00;100584.63;2614907;36;20038;-46
2021/09/18 00:43:02;;;;;;;0.60;0.50;;;;;;;12.48;100.00;100583.75;2614438;36;20628;-49
2021/09/18 00:45:29;;;;;;;0.50;0.50;;;;;;;12.49;100.00;100588.03;2614907;31;20049;-47
2021/09/18 00:47:56;;;;;;;0.43;0.40;;;;;;;12.49;100.00;100585.47;2614203;36;20081;-46
2021/09/18 00:50:23;;;;;;;2.22;0.57;;;;;;;12.49;100.00;100589.75;2614496;36;20034;-46
2021/09/18 00:52:50;;;;;;;1.25;0.47;;;;;;;12.48;100.00;100575.19;2614539;36;20058;-46
2021/09/18 00:55:18;;;;;;;0.40;0.40;;;;;;;12.47;100.00;100584.56;2614385;36;20585;-48
2021/09/18 00:57:45;;;;;;;1.05;0.47;;;;;;;12.46;100.00;100584.56;2614486;31;20038;-47
2021/09/18 01:00:19;;;;;;;1.13;0.55;;;;;;;12.44;100.00;100586.25;2614482;36;20042;-47
2021/09/18 01:02:46;;;;;;;0.50;0.50;;;;;;;12.41;100.00;100581.06;2614875;31;20513;-47
2021/09/18 01:05:14;;;;;;;0.60;0.47;;;;;;;12.38;100.00;100579.28;2614950;31;20027;-49
2021/09/18 01:07:41;;;;;;;4.32;0.80;;;;;;;12.40;100.00;100580.19;2614449;31;20030;-48
2021/09/18 01:10:09;;;;;;;1.15;0.47;;;;;;;12.37;100.00;100581.84;2614478;36;20045;-46
2021/09/18 01:13:11;;;;;;;1.02;0.70;;;;;;;12.37;100.00;100584.41;2615047;31;20455;-46
2021/09/18 01:15:39;;;;;;;4.63;0.73;;;;;;;12.37;100.00;100584.41;2578350;31;2004373;-46
2021/09/18 01:18:07;;;;;;;1.02;0.75;;;;;;;12.37;100.00;100586.97;2615080;31;20027;-46
2021/09/18 01:20:36;;;;;;;1.98;0.60;;;;;;;12.38;100.00;100588.69;2614695;31;20045;-48
2021/09/18 01:23:06;;;;;;;1.48;0.40;;;;;;;12.39;100.00;100588.75;2615488;31;20050;-46
2021/09/18 01:25:35;;;;;;;1.05;0.52;;;;;;;12.38;100.00;100588.69;2614259;36;20030;-47
2021/09/18 01:28:05;;;;;;;1.35;0.60;;;;;;;12.38;100.00;100583.56;2614165;36;20126;-46
2021/09/18 01:30:34;;;;;;;0.88;0.65;;;;;;;12.35;100.00;100581.81;2614987;31;20029;-48
2021/09/18 01:33:03;;;;;;;1.77;0.80;;;;;;;12.34;100.00;100579.19;2614711;36;20453;-46
2021/09/18 01:35:32;;;;;;;2.05;0.70;;;;;;;12.32;100.00;100571.50;2614263;36;20030;-47
2021/09/18 01:38:00;;;;;;;0.98;0.60;;;;;;;12.30;100.00;100575.75;2613982;36;20031;-48
2021/09/18 01:40:33;;;;;;;0.55;0.50;;;;;;;12.28;100.00;100577.41;2615137;31;20035;-46
2021/09/18 01:43:01;;;;;;;5.63;0.55;;;;;;;12.32;100.00;100583.47;2615175;31;20033;-46
2021/09/18 01:45:28;;;;;;;2.25;0.70;;;;;;;12.33;100.00;100586.03;2614895;31;20038;-45
2021/09/18 01:47:57;;;;;;;1.20;0.73;;;;;;;12.32;100.00;100584.31;2614132;31;20053;-47
2021/09/18 01:50:33;;;;;;;0.60;0.60;;;;;;;12.31;100.00;100577.47;2615270;31;20037;-46
2021/09/18 01:53:04;;;;;;;1.02;0.80;;;;;;;12.30;100.00;100577.44;2615526;36;20466;-46
2021/09/18 01:55:32;;;;;;;2.53;0.85;;;;;;;12.29;100.00;100580.84;2615180;31;20034;-48
2021/09/18 01:58:00;;;;;;;1.05;0.85;;;;;;;12.31;100.00;100584.31;2615918;31;20038;-45
2021/09/18 02:00:28;;;;;;;2.13;0.73;;;;;;;12.31;100.00;100590.31;2615981;31;20037;-47
2021/09/18 02:02:55;;;;;;;1.13;0.85;;;;;;;12.31;100.00;100586.88;2614444;36;20061;-50
2021/09/18 02:05:25;;;;;;;1.58;0.70;;;;;;;12.30;100.00;100583.44;2615624;31;20126;-45
2021/09/18 02:07:54;;;;;;;1.13;0.60;;;;;;;12.29;100.00;100580.84;2615827;31;20034;-45
2021/09/18 02:10:25;;;;;;;0.98;0.93;;;;;;;12.28;100.00;100579.09;2616655;31;20030;-47
2021/09/18 02:12:53;;;;;;;2.50;0.85;;;;;;;12.28;100.00;100585.09;2615155;36;20069;-44
2021/09/18 02:15:22;;;;;;;2.92;0.90;;;;;;;12.28;100.00;100579.09;2616453;31;20514;-48
2021/09/18 02:17:50;;;;;;;1.67;0.80;;;;;;;12.27;100.00;100580.81;2615854;31;20054;-46
2021/09/18 02:20:21;;;;;;;1.23;0.60;;;;;;;12.26;100.00;100579.09;2615030;36;20035;-45
2021/09/18 02:22:48;;;;;;;1.95;0.70;;;;;;;12.26;100.00;100584.22;2616844;31;20121;-46
2021/09/18 02:25:17;;;;;;;2.10;0.95;;;;;;;12.27;100.00;100579.97;2615953;31;20122;-46
2021/09/18 02:27:45;;;;;;;1.90;1.00;;;;;;;12.26;100.00;100575.66;2615535;31;20049;-48
2021/09/18 02:30:16;;;;;;;1.45;0.88;;;;;;;12.24;100.00;100581.63;2615398;36;20499;-45
2021/09/18 02:32:45;;;;;;;1.92;0.90;;;;;;;12.24;100.00;100576.47;2614895;36;20139;-49
2021/09/18 02:35:14;;;;;;;1.17;0.80;;;;;;;12.24;100.00;100578.19;2615854;31;20033;-46
2021/09/18 02:37:42;;;;;;;0.80;0.63;;;;;;;12.22;100.00;100573.03;2614532;36;20111;-48
2021/09/18 02:40:12;;;;;;;1.05;0.82;;;;;;;12.20;100.00;100571.28;2616387;31;20565;-47
2021/09/18 02:42:41;;;;;;;2.85;0.98;;;;;;;12.21;100.00;100575.59;2615082;36;20057;-47
2021/09/18 02:45:09;;;;;;;1.45;0.77;;;;;;;12.19;100.00;100575.53;2615076;36;20030;-47
2021/09/18 02:47:36;;;;;;;2.40;0.80;;;;;;;12.22;100.00;100567.91;2615371;31;20775;-46
2021/09/18 02:50:06;;;;;;;2.03;0.85;;;;;;;12.22;100.00;100565.34;2616712;31;20566;-48
2021/09/18 02:52:33;;;;;;;2.95;0.98;;;;;;;12.24;100.00;100573.06;2616170;31;20466;-45
2021/09/18 02:55:01;;;;;;;2.53;0.82;;;;;;;12.25;100.00;100569.66;2614663;36;20149;-45
2021/09/18 02:57:28;;;;;;;0.93;0.80;;;;;;;12.27;100.00;100562.84;2615110;36;20600;-47
2021/09/18 03:00:06;;;;;;;1.15;0.82;;;;;;;12.29;100.00;100565.44;2615691;31;20054;-48
2021/09/18 03:02:33;;;;;;;3.33;1.10;;;;;;;12.26;100.00;100562.84;2615382;36;20454;-45
2021/09/18 03:05:02;;;;;;;3.25;0.98;;;;;;;12.26;100.00;100560.25;2615666;31;20057;-45
2021/09/18 03:07:30;;;;;;;1.00;1.00;;;;;;;12.25;100.00;100559.41;2617254;31;20546;-49
2021/09/18 03:09:57;;;;;;;1.33;0.70;;;;;;;12.26;100.00;100565.41;2614932;36;20182;-47
2021/09/18 03:12:24;;;;;;;2.05;0.80;;;;;;;12.25;100.00;100567.09;2614433;36;20027;-47
2021/09/18 03:14:52;;;;;;;1.73;0.80;;;;;;;12.26;100.00;100567.97;2615022;31;20038;-49
2021/09/18 03:17:19;;;;;;;1.50;0.80;;;;;;;12.26;100.00;100565.41;2613688;36;20069;-47
2021/09/18 03:19:46;;;;;;;2.30;1.10;;;;;;;12.24;100.00;100552.50;2614278;36;20057;-45
2021/09/18 03:22:13;;;;;;;5.43;1.42;;;;;;;12.23;100.00;100558.50;2615202;36;20449;-46
2021/09/18 03:24:40;;;;;;;1.30;0.80;;;;;;;12.24;100.00;100549.94;2615125;31;20786;-46
2021/09/18 03:27:08;;;;;;;2.55;0.93;;;;;;;12.26;100.00;100552.56;2615619;31;20100;-45
2021/09/18 03:29:35;;;;;;;0.88;0.88;;;;;;;12.23;100.00;100550.78;2614733;36;20030;-45
2021/09/18 03:32:04;;;;;;;2.25;1.00;;;;;;;12.25;100.00;100551.69;2616685;31;20478;-45
2021/09/18 03:34:31;;;;;;;1.45;1.00;;;;;;;12.24;100.00;100553.38;2614954;36;20763;-46
2021/09/18 03:36:58;;;;;;;2.33;0.90;;;;;;;12.27;100.00;100556.84;2614205;36;20037;-45
2021/09/18 03:39:25;;;;;;;2.45;1.10;;;;;;;12.26;100.00;100555.13;2614593;36;20040;-46
2021/09/18 03:41:52;;;;;;;1.10;1.05;;;;;;;12.24;100.00;100555.94;2614661;36;20035;-48
2021/09/18 03:44:20;;;;;;;2.78;1.20;;;;;;;12.23;100.00;100550.78;2616412;31;20808;-46
2021/09/18 03:46:47;;;;;;;1.70;1.30;;;;;;;12.24;100.00;100557.66;2614760;36;20053;-47
2021/09/18 03:49:14;;;;;;;5.93;2.50;;;;;;;12.24;100.00;100550.81;2615717;31;20641;-46
2021/09/18 03:51:41;;;;;;;1.20;1.10;;;;;;;12.26;100.00;100553.41;2614180;36;20031;-48
2021/09/18 03:54:08;;;;;;;1.48;1.00;;;;;;;12.27;100.00;100556.84;2615132;31;20030;-48
2021/09/18 03:56:35;;;;;;;2.58;1.23;;;;;;;12.25;100.00;100551.69;2615178;31;20031;-45
2021/09/18 03:59:03;;;;;;;1.25;1.10;;;;;;;12.26;100.00;100550.84;2616019;31;20031;-47
2021/09/18 04:01:30;;;;;;;1.27;1.05;;;;;;;12.27;100.00;100551.72;2614704;36;20030;-48
2021/09/18 04:03:59;;;;;;;1.58;1.08;;;;;;;12.28;100.00;100556.00;2615862;31;20592;-46
2021/09/18 04:06:27;;;;;;;2.65;1.35;;;;;;;12.24;100.00;100548.25;2615580;31;20815;-47
2021/09/18 04:08:54;;;;;;;2.35;1.15;;;;;;;12.24;100.00;100548.25;2615551;31;20027;-45
2021/09/18 04:11:21;;;;;;;3.88;1.35;;;;;;;12.25;100.00;100549.13;2614819;31;20416;-50
2021/09/18 04:13:51;;;;;;;2.72;1.27;;;;;;;12.25;100.00;100549.13;2614770;36;20061;-45
2021/09/18 04:16:20;;;;;;;1.80;1.20;;;;;;;12.24;100.00;100539.69;2615258;31;20031;-46
2021/09/18 04:18:48;;;;;;;2.05;1.38;;;;;;;12.24;100.00;100540.53;2614705;36;20084;-47
2021/09/18 04:21:15;;;;;;;1.88;1.30;;;;;;;12.24;100.00;100539.69;2615372;31;20035;-49
2021/09/18 04:23:43;;;;;;;1.33;1.20;;;;;;;12.25;100.00;100538.88;2614509;36;20026;-48
2021/09/18 04:26:11;;;;;;;3.72;1.55;;;;;;;12.26;100.00;100532.03;2615735;31;20019;-46
2021/09/18 04:28:38;;;;;;;1.92;1.73;;;;;;;12.27;100.00;100533.75;2615089;31;20031;-45
2021/09/18 04:31:05;;;;;;;2.50;1.63;;;;;;;12.28;100.00;100533.75;2615294;31;20045;-44
2021/09/18 04:33:33;;;;;;;2.28;1.67;;;;;;;12.28;100.00;100546.59;2614572;36;20058;-46
2021/09/18 04:36:01;;;;;;;4.00;2.42;;;;;;;12.30;100.00;100544.94;2614130;36;20054;-48
2021/09/18 04:38:28;;;;;;;1.75;1.45;;;;;;;12.33;100.00;100542.41;2614890;31;20030;-47
2021/09/18 04:40:55;;;;;;;2.03;1.75;;;;;;;12.34;100.00;100549.28;2614668;36;20781;-45
2021/09/18 04:43:23;;;;;;;2.15;1.60;;;;;;;12.39;100.00;100551.94;2614533;36;20450;-44
2021/09/18 04:45:51;;;;;;;1.83;1.73;;;;;;;12.40;100.00;100556.22;2614934;31;20041;-48
2021/09/18 04:48:18;;;;;;;1.50;1.40;;;;;;;12.41;100.00;100555.38;2614433;36;20042;-46
2021/09/18 04:50:46;;;;;;;4.65;2.47;;;;;;;12.41;100.00;100558.78;2614368;36;20609;-47
2021/09/18 04:53:13;;;;;;;3.42;1.83;;;;;;;12.45;100.00;100558.00;2614159;36;20030;-47
2021/09/18 04:55:40;;;;;;;1.67;1.58;;;;;;;12.47;100.00;100558.03;2614753;31;20037;-45
2021/09/18 04:58:08;;;;;;;2.85;1.73;;;;;;;12.48;100.00;100560.63;2614818;31;20046;-46
2021/09/18 05:00:35;;;;;;;3.72;1.85;;;;;;;12.52;100.00;100560.66;2615700;31;20035;-45
2021/09/18 05:03:02;;;;;;;3.10;1.55;;;;;;;12.50;100.00;100558.09;2614138;36;20932;-45
2021/09/18 05:05:30;;;;;;;2.15;1.95;;;;;;;12.51;100.00;100556.38;2613688;36;20045;-44
2021/09/18 05:07:57;;;;;;;2.40;1.60;;;;;;;12.53;100.00;100554.72;2614879;31;20072;-44
2021/09/18 05:10:24;;;;;;;9.15;2.72;;;;;;;12.55;100.00;100563.28;2615510;31;20166;-45
2021/09/18 05:12:51;;;;;;;2.63;1.50;;;;;;;12.56;100.00;100559.88;2618679;31;20031;-45
2021/09/18 05:15:19;;;;;;;1.80;1.60;;;;;;;12.57;100.00;100566.72;2615736;31;20038;-46
2021/09/18 05:17:46;;;;;;;1.88;1.10;;;;;;;12.59;100.00;100559.94;2614081;36;20103;-50
2021/09/18 05:20:13;;;;;;;1.67;1.40;;;;;;;12.61;100.00;100563.38;2614162;36;20037;-48
2021/09/18 05:22:40;;;;;;;1.60;1.38;;;;;;;12.63;100.00;100572.00;2614391;31;20037;-43
2021/09/18 05:25:08;;;;;;;2.15;1.85;;;;;;;12.63;100.00;100565.13;2615120;36;20030;-47
2021/09/18 05:27:35;;;;;;;2.05;1.38;;;;;;;12.65;100.00;100560.88;2614933;36;20061;-45
2021/09/18 05:30:04;;;;;;;7.07;1.83;;;;;;;12.65;100.00;100562.59;2615479;31;20103;-48
2021/09/18 05:32:31;;;;;;;3.22;1.80;;;;;;;12.65;100.00;100576.28;2614924;36;20035;-49
2021/09/18 05:34:59;;;;;;;2.78;1.60;;;;;;;12.64;100.00;100583.97;2615318;36;20570;-46
2021/09/18 05:37:27;;;;;;;2.35;1.52;;;;;;;12.69;100.00;100584.91;2615045;31;20692;-46
2021/09/18 05:39:54;;;;;;;3.33;1.95;;;;;;;12.70;100.00;100587.50;2615062;36;20030;-48
2021/09/18 05:42:21;;;;;;;1.90;1.75;;;;;;;12.71;100.00;100586.69;2615265;36;20035;-45
2021/09/18 05:44:48;;;;;;;5.05;2.30;;;;;;;12.67;100.00;100592.63;2615810;31;20042;-45
2021/09/18 05:47:15;;;;;;;5.50;2.22;;;;;;;12.69;100.00;100595.19;2616118;31;20061;-47
2021/09/18 05:49:42;;;;;;;5.22;2.88;;;;;;;12.69;100.00;100587.47;2615908;31;20037;-54
2021/09/18 05:52:10;;;;;;;6.85;2.85;;;;;;;12.71;100.00;100588.34;2615412;36;20592;-51
2021/09/18 05:54:37;;;;;;;4.70;3.13;;;;;;;12.73;100.00;100590.13;2615303;36;20037;-51
2021/09/18 05:57:04;;;;;;;3.95;2.60;;;;;;;12.75;100.00;100592.72;2614911;36;20038;-46
2021/09/18 05:59:31;;;;;;;4.20;3.10;;;;;;;12.71;100.00;100589.25;2615473;31;20030;-46
2021/09/18 06:01:58;;;;;;;4.72;2.92;;;;;;;12.78;100.00;100589.34;2615626;31;20046;-48
2021/09/18 06:04:26;;;;;;;3.90;3.10;;;;;;;12.76;100.00;100591.88;2615367;31;20062;-45
2021/09/18 06:06:53;;;;;;;4.82;3.30;;;;;;;12.72;100.00;100595.25;2615294;36;20596;-50
2021/09/18 06:09:21;;;;;;;5.13;3.40;;;;;;;12.74;100.00;100598.69;2614613;36;20023;-46
2021/09/18 06:11:48;;;;;;;4.82;3.67;;;;;;;12.69;100.00;100588.34;2615979;31;20037;-46
2021/09/18 06:14:15;;;;;;;5.10;3.80;;;;;;;12.68;100.00;100593.47;2615263;36;20034;-47
2021/09/18 06:16:42;;;;;;;4.75;3.70;;;;;;;12.71;100.00;100596.06;2615152;36;20147;-47
2021/09/18 06:19:11;;;;;;;7.78;4.35;;;;;;;12.67;100.00;100596.88;2614836;36;20031;-48
2021/09/18 06:21:39;;;;;;;6.75;4.43;;;;;;;12.66;100.00;100603.72;2614292;36;20023;-50
2021/09/18 06:24:11;;;;;;;4.78;3.70;;;;;;;12.68;100.00;100599.47;2616352;31;20134;-46
2021/09/18 06:26:40;;;;;;;7.97;4.13;;;;;;;12.69;100.00;100598.63;2614713;36;20550;-45
2021/09/18 06:29:08;;;;;;;7.03;4.97;;;;;;;12.72;100.00;100600.38;2615803;31;20048;-48
2021/09/18 06:31:35;;;;;;;7.80;4.68;;;;;;;12.67;100.00;100609.72;2615747;31;20027;-49
2021/09/18 06:34:05;;;;;;;8.15;4.97;;;;;;;12.63;100.00;100607.94;2617152;31;20046;-47
2021/09/18 06:36:33;;;;;;;9.93;5.95;;;;;;;12.62;100.00;100609.66;2616072;31;20029;-46
2021/09/18 06:39:00;;;;;;;8.32;5.45;;;;;;;12.63;100.00;100613.94;2615368;36;20867;-47
2021/09/18 06:41:27;;;;;;;9.63;5.93;;;;;;;12.63;100.00;100606.25;2613967;36;20030;-45
2021/09/18 06:43:54;;;;;;;10.68;6.47;;;;;;;12.64;100.00;100615.66;2613817;36;20038;-48
2021/09/18 06:46:22;;;;;;;8.02;6.25;;;;;;;12.59;100.00;100617.31;2614663;31;20038;-46
2021/09/18 06:48:49;;;;;;;8.98;6.43;;;;;;;12.62;100.00;100616.50;2615300;31;20416;-46
2021/09/18 06:51:16;;;;;;;8.63;5.68;;;;;;;12.62;100.00;100619.06;2615473;36;20034;-46
2021/09/18 06:53:45;;;;;;;11.55;6.18;;;;;;;12.63;100.00;100613.94;2614714;36;20058;-47
2021/09/18 06:56:14;;;;;;;7.43;6.50;;;;;;;12.65;100.00;100613.97;2615152;36;20159;-46
2021/09/18 06:58:41;;;;;;;8.02;6.50;;;;;;;12.67;100.00;100618.31;2616157;31;20038;-47
2021/09/18 07:01:09;;;;;;;10.23;6.90;;;;;;;12.61;100.00;100617.31;2615332;31;20031;-47
2021/09/18 07:03:36;;;;;;;10.45;6.97;;;;;;;12.61;100.00;100620.75;2615154;36;20034;-47
2021/09/18 07:06:04;;;;;;;11.15;6.53;;;;;;;12.62;100.00;100616.50;2615607;31;20430;-46
2021/09/18 07:08:31;;;;;;;10.38;6.50;;;;;;;12.58;100.00;100618.16;2615524;36;20451;-46
2021/09/18 07:10:58;;;;;;;7.93;5.82;;;;;;;12.69;100.00;100621.75;2615245;36;20062;-47
2021/09/18 07:13:25;;;;;;;9.73;6.95;;;;;;;12.65;100.00;100622.53;2615492;31;20045;-48
2021/09/18 07:15:53;;;;;;;10.32;6.38;;;;;;;12.71;100.00;100619.19;2614702;31;20030;-52
2021/09/18 07:18:21;;;;;;;7.95;6.30;;;;;;;12.74;100.00;100629.53;2615009;36;20117;-48
2021/09/18 23:27:35;;;;;;;;;;;;;;;11.97;94.26;101043.97;2615997;36;20510;-52
2021/09/18 23:30:06;;;;;;;5.57;3.53;;;;;;;11.95;95.35;101039.63;2617147;31;20369;-46
2021/09/18 23:32:33;;;;;;;4.75;2.67;;;;;;;11.94;93.85;101050.72;2616701;36;20038;-47
2021/09/18 23:35:00;;;;;;;5.00;3.13;;;;;;;11.95;95.06;101047.31;2617641;31;20030;-47
2021/09/18 23:37:27;;;;;;;4.03;3.42;;;;;;;11.95;95.03;101044.75;2616252;36;20019;-48
2021/09/18 23:39:55;;;;;;;5.32;2.95;;;;;;;11.93;93.93;101042.16;2616446;36;20038;-48
2021/09/18 23:42:22;;;;;;;5.13;3.20;;;;;;;11.93;94.77;101046.44;2616726;36;20034;-48
2021/09/18 23:44:49;;;;;;;4.40;3.38;;;;;;;11.89;95.14;101042.03;2617008;36;20038;-51
2021/09/18 23:47:16;;;;;;;3.92;3.00;;;;;;;11.91;95.94;101045.50;2617093;31;20034;-46
2021/09/18 23:49:44;;;;;;;4.15;2.85;;;;;;;11.91;94.87;101043.78;2617050;31;20035;-48
2021/09/18 23:52:11;;;;;;;4.78;3.85;;;;;;;11.93;95.92;101039.59;2616756;36;20399;-46
2021/09/18 23:54:38;;;;;;;4.55;3.10;;;;;;;11.94;93.74;101041.31;2616595;31;20605;-47
2021/09/18 23:57:05;;;;;;;2.47;2.25;;;;;;;11.95;94.78;101044.75;2616614;36;20038;-48
2021/09/18 23:59:33;;;;;;;4.90;3.42;;;;;;;11.96;96.93;101041.34;2618552;31;20487;-52
